Time;durP1;ratioP1;P1;durP2;ratioP2;P2;SDS_P1;SDS_P2;PMS_P1;PMS_P2;Temp;Humidity;BMP_temperature;BMP_pressure;BME280_temperature;BME280_humidity;BME280_pressure;Samples;Min_cycle;Max_cycle;Signal;HPM_P1;HPM_P2
2022/01/26 00:00:18;;;;;;;40.75;13.57;;;;;;;2.01;56.13;103139.34;5010506;28;20833;-73
2022/01/26 00:08:11;;;;;;;45.70;15.38;;;;;;;1.82;57.00;103128.44;5004285;28;20060;-72
2022/01/26 00:10:36;;;;;;;51.90;15.80;;;;;;;1.83;56.85;103121.59;5005672;28;20061;-70
2022/01/26 00:13:02;;;;;;;43.42;14.25;;;;;;;2.30;55.87;103125.66;5005089;28;20042;-70
2022/01/26 00:15:30;;;;;;;56.38;16.42;;;;;;;2.14;56.13;103126.03;5011864;28;20037;-69
2022/01/26 00:17:56;;;;;;;54.20;16.77;;;;;;;1.96;56.56;103135.75;5007594;28;20042;-69
2022/01/26 00:20:27;;;;;;;43.08;14.13;;;;;;;2.33;55.25;103128.34;5006617;28;20528;-69
2022/01/26 00:38:37;;;;;;;70.57;19.05;;;;;;;2.28;55.44;103086.03;5010804;28;20030;-72
2022/01/26 00:41:06;;;;;;;58.15;17.75;;;;;;;1.66;57.50;103101.28;5009529;28;20509;-73
2022/01/26 00:43:33;;;;;;;58.58;18.05;;;;;;;1.83;56.96;103104.41;5007754;28;20034;-72
2022/01/26 00:46:01;;;;;;;60.40;17.73;;;;;;;2.02;56.20;103108.47;5025397;28;20461;-73
2022/01/26 00:48:30;;;;;;;60.20;19.02;;;;;;;1.69;57.46;103106.53;5010096;28;20492;-72
2022/01/26 00:50:59;;;;;;;58.33;17.77;;;;;;;1.89;56.19;103109.75;5007714;28;20163;-72
2022/01/26 00:53:32;;;;;;;66.80;20.08;;;;;;;2.34;55.43;103100.81;5006716;28;21467;-72
2022/01/26 00:55:58;;;;;;;54.20;17.58;;;;;;;1.66;57.07;103097.81;5014294;28;20087;-72
2022/01/26 00:58:23;;;;;;;60.67;18.92;;;;;;;1.77;56.72;103101.63;5023996;28;20029;-73
2022/01/26 01:00:49;;;;;;;50.17;17.38;;;;;;;2.32;55.19;103098.19;5015551;28;20987;-72
2022/01/26 01:03:15;;;;;;;60.22;17.88;;;;;;;2.00;56.17;103083.41;5007216;28;20038;-72
2022/01/26 01:06:07;;;;;;;57.53;18.15;;;;;;;2.12;55.87;103074.34;5010850;28;20068;-72
2022/01/26 01:08:27;;;;;;;63.17;19.60;;;;;;;1.88;56.48;103083.91;5006263;28;20046;-72
2022/01/26 01:10:55;;;;;;;60.08;19.02;;;;;;;2.01;55.97;103086.06;5007658;28;20502;-72
2022/01/26 01:13:30;;;;;;;56.45;18.33;;;;;;;1.55;57.43;103084.59;5006908;28;20052;-72
2022/01/26 01:15:56;;;;;;;64.95;19.85;;;;;;;1.77;56.95;103070.69;5008825;28;20030;-72
2022/01/26 01:18:31;;;;;;;60.67;18.77;;;;;;;1.70;57.46;103068.72;5005492;28;20057;-72
2022/01/26 01:29:11;;;;;;;58.45;20.10;;;;;;;1.94;56.57;103053.16;5023107;28;20078;-70
2022/01/26 01:34:19;;;;;;;54.88;17.25;;;;;;;2.14;55.99;103038.28;5008306;28;20034;-72
2022/01/26 01:36:49;;;;;;;65.63;20.20;;;;;;;1.72;56.95;103043.88;5021835;28;20173;-72
2022/01/26 01:39:15;;;;;;;53.13;17.38;;;;;;;2.04;55.89;103034.56;5022732;28;20026;-72
2022/01/26 01:41:42;;;;;;;56.92;18.38;;;;;;;2.08;55.62;103038.97;5009145;28;20494;-71
2022/01/26 01:44:09;;;;;;;58.15;18.52;;;;;;;2.02;56.09;103050.81;5007231;28;20510;-72
2022/01/26 01:46:35;;;;;;;62.85;22.02;;;;;;;1.80;56.75;103046.72;5008934;28;20505;-72
2022/01/26 01:49:03;;;;;;;66.07;21.40;;;;;;;1.88;56.75;103046.09;4967558;28;1104396;-72
2022/01/26 01:51:33;;;;;;;63.65;18.73;;;;;;;2.23;55.82;103048.03;5012499;28;20061;-72
2022/01/26 01:53:59;;;;;;;61.67;20.15;;;;;;;1.96;56.09;103051.50;5006955;28;20500;-72
2022/01/26 01:56:26;;;;;;;64.95;22.38;;;;;;;1.82;56.58;103038.19;5001419;28;20038;-72
2022/01/26 01:58:59;;;;;;;63.65;19.75;;;;;;;2.20;55.84;103041.06;5021499;28;20057;-71
2022/01/26 02:01:26;;;;;;;62.53;20.88;;;;;;;2.14;55.93;103040.88;5009107;28;20068;-72
2022/01/26 02:03:52;;;;;;;63.92;18.77;;;;;;;1.98;56.22;103042.13;5005627;28;20061;-71
2022/01/26 02:06:18;;;;;;;62.80;20.63;;;;;;;2.19;55.83;103034.13;5008841;28;20084;-71
2022/01/26 02:08:44;;;;;;;72.13;19.67;;;;;;;2.01;55.88;103026.72;5008716;28;20281;-73
2022/01/26 02:11:12;;;;;;;61.38;20.27;;;;;;;2.25;55.52;103016.25;5010687;28;20021;-72
2022/01/26 02:13:58;;;;;;;62.58;19.88;;;;;;;1.41;57.87;103004.22;5007182;28;20396;-72
2022/01/26 02:21:57;;;;;;;63.08;19.25;;;;;;;2.20;55.46;102994.63;5009064;28;20080;-72
2022/01/26 02:57:30;;;;;;;61.13;16.77;;;;;;;1.81;56.05;103008.06;4993108;28;20437;-73
2022/01/26 03:02:53;;;;;;;66.85;16.77;;;;;;;1.48;56.99;102990.75;5021496;28;20052;-72
2022/01/26 03:05:24;;;;;;;64.00;19.33;;;;;;;1.78;56.60;102992.50;5007754;28;20037;-73
2022/01/26 03:07:55;;;;;;;60.80;17.67;;;;;;;1.56;57.09;102997.84;5011016;28;20125;-73
2022/01/26 03:10:35;;;;;;;65.57;17.85;;;;;;;0.79;58.74;102980.69;5024723;28;20482;-71
2022/01/26 03:13:09;;;;;;;58.58;18.42;;;;;;;1.33;57.86;103000.50;5013549;28;20048;-70
2022/01/26 03:15:43;;;;;;;57.05;18.70;;;;;;;1.56;56.98;102997.84;5023897;28;20037;-71
2022/01/26 03:18:29;;;;;;;56.78;16.70;;;;;;;1.72;56.50;102989.75;4998514;28;20030;-71
2022/01/26 03:20:57;;;;;;;68.78;18.33;;;;;;;1.87;55.88;102991.91;5005185;28;20076;-71
2022/01/26 03:31:49;;;;;;;57.72;17.98;;;;;;;1.72;56.24;102989.75;5021915;28;20045;-70
2022/01/26 03:34:12;;;;;;;56.30;18.05;;;;;;;2.01;55.53;102992.31;5013799;28;20042;-71
2022/01/26 03:36:55;;;;;;;74.38;19.70;;;;;;;1.85;56.01;102986.72;5012179;28;20033;-70
2022/01/26 03:39:23;;;;;;;68.93;19.40;;;;;;;2.11;54.95;102989.19;5007834;28;20073;-70
2022/01/26 03:41:54;;;;;;;72.85;18.42;;;;;;;1.79;55.96;102996.81;5006227;28;20029;-70
2022/01/26 03:44:20;;;;;;;65.50;19.33;;;;;;;1.93;55.43;102995.56;5007061;28;20034;-74
2022/01/26 03:46:47;;;;;;;52.05;17.70;;;;;;;1.58;56.23;102997.03;5008465;28;20045;-74
2022/01/26 03:49:13;;;;;;;66.22;19.13;;;;;;;0.78;58.82;103011.53;5024099;28;20079;-73
2022/01/26 03:51:40;;;;;;;59.45;18.38;;;;;;;1.23;57.23;103003.59;5007370;28;20037;-72
2022/01/26 03:54:06;;;;;;;65.88;19.60;;;;;;;0.74;58.77;103001.94;5007172;28;20057;-73
2022/01/26 03:56:33;;;;;;;70.53;18.08;;;;;;;1.56;56.57;102997.84;4997118;28;20033;-72
2022/01/26 03:58:58;;;;;;;74.80;19.50;;;;;;;1.29;56.78;103001.22;5006057;28;20044;-74
2022/01/26 04:01:24;;;;;;;59.92;17.15;;;;;;;1.58;56.49;103009.06;5000332;28;20030;-72
2022/01/26 04:03:50;;;;;;;70.00;20.80;;;;;;;1.38;56.95;103000.66;5009771;28;20036;-72
2022/01/26 04:06:16;;;;;;;63.47;20.73;;;;;;;1.26;56.69;102998.53;5022739;28;20079;-72
2022/01/26 04:08:43;;;;;;;61.08;18.95;;;;;;;1.98;55.10;102989.66;5004390;28;20041;-73
2022/01/26 04:13:53;;;;;;;62.88;18.15;;;;;;;1.50;56.39;102981.31;5006549;28;20123;-73
2022/01/26 04:16:20;;;;;;;64.45;20.50;;;;;;;1.05;57.65;102978.97;4996779;28;20116;-72
2022/01/26 04:18:46;;;;;;;65.43;19.15;;;;;;;1.64;55.88;102968.00;5004684;28;20037;-72
2022/01/26 04:21:25;;;;;;;73.90;21.08;;;;;;;1.54;56.05;102965.97;5005839;28;20029;-73
2022/01/26 04:26:20;;;;;;;65.50;16.73;;;;;;;1.14;57.33;102954.34;5006162;28;20083;-72
2022/01/26 04:28:57;;;;;;;74.20;20.38;;;;;;;1.33;56.98;102959.28;5004830;28;20065;-70
2022/01/26 04:31:23;;;;;;;64.53;20.80;;;;;;;1.67;55.96;102960.38;5007032;28;20037;-71
2022/01/26 04:33:49;;;;;;;55.42;18.23;;;;;;;1.78;55.69;102948.69;5006007;28;20399;-70
2022/01/26 04:36:21;;;;;;;59.53;19.73;;;;;;;1.28;57.12;102945.38;5005676;28;20034;-70
2022/01/26 04:38:52;;;;;;;69.95;20.27;;;;;;;1.40;55.93;102939.75;5007849;28;20034;-69
2022/01/26 04:41:30;;;;;;;79.47;21.05;;;;;;;1.18;57.08;102933.03;4997938;28;20040;-71
2022/01/26 04:44:02;;;;;;;74.38;19.40;;;;;;;1.55;55.80;102934.22;5004515;28;20033;-71
2022/01/26 04:46:28;;;;;;;62.53;19.65;;;;;;;1.68;55.28;102926.00;5011160;28;20041;-71
2022/01/26 04:48:54;;;;;;;59.45;20.45;;;;;;;1.95;54.80;102915.63;5005750;28;20045;-71
2022/01/26 04:51:19;;;;;;;65.75;19.45;;;;;;;1.70;55.49;102919.22;5006131;28;20045;-71
2022/01/26 04:53:45;;;;;;;61.35;20.35;;;;;;;1.90;55.02;102918.09;5002832;28;20037;-70
2022/01/26 04:56:13;;;;;;;70.75;20.75;;;;;;;2.10;54.19;102915.19;5011670;28;20034;-73
2022/01/26 04:58:39;;;;;;;69.28;21.33;;;;;;;1.38;56.08;102906.19;5004266;28;20637;-71
2022/01/26 05:01:04;;;;;;;76.50;19.75;;;;;;;1.68;54.99;102920.84;5014587;28;20128;-71
2022/01/26 05:03:30;;;;;;;66.10;19.42;;;;;;;1.45;56.05;102912.44;5021540;28;20033;-71
2022/01/26 05:05:55;;;;;;;71.00;19.55;;;;;;;1.39;55.93;102910.50;5010384;28;20040;-71
2022/01/26 05:08:20;;;;;;;72.10;21.10;;;;;;;1.74;54.72;102910.75;5005392;28;20541;-70
2022/01/26 05:10:46;;;;;;;72.35;21.05;;;;;;;1.21;55.91;102904.78;5006785;28;20037;-70
2022/01/26 05:13:14;;;;;;;73.38;21.65;;;;;;;0.60;58.15;102890.78;5009651;28;20178;-71
2022/01/26 05:15:39;;;;;;;76.97;20.92;;;;;;;0.56;58.21;102869.22;5008341;28;20328;-71
2022/01/26 05:18:06;;;;;;;73.53;23.02;;;;;;;1.02;57.12;102875.88;5008068;28;20726;-71
2022/01/26 05:20:33;;;;;;;65.20;18.83;;;;;;;1.25;56.38;102889.47;5008714;28;20078;-72
2022/01/26 05:22:58;;;;;;;69.53;20.25;;;;;;;1.22;56.28;102886.81;5006989;28;20042;-71
2022/01/26 05:25:24;;;;;;;72.63;19.33;;;;;;;1.20;56.60;102905.63;5022331;28;20052;-71
2022/01/26 05:27:50;;;;;;;74.53;19.33;;;;;;;1.61;55.82;102904.34;5008779;28;20132;-72
2022/01/26 05:30:15;;;;;;;74.22;20.63;;;;;;;1.25;56.39;102901.47;4995782;28;20033;-70
2022/01/26 05:32:41;;;;;;;84.25;22.40;;;;;;;0.71;57.56;102893.72;5007742;28;20098;-71
2022/01/26 05:35:07;;;;;;;68.45;19.02;;;;;;;1.06;56.57;102892.28;5012320;28;20113;-71
2022/01/26 05:37:32;;;;;;;64.20;18.45;;;;;;;1.53;55.60;102892.94;5005452;28;20041;-72
2022/01/26 05:39:58;;;;;;;68.25;18.17;;;;;;;1.01;56.60;102892.13;5024922;28;20369;-71
2022/01/26 05:42:24;;;;;;;75.15;21.13;;;;;;;0.84;57.15;102885.59;5008243;28;20076;-73
2022/01/26 05:44:51;;;;;;;75.72;19.08;;;;;;;1.01;56.63;102889.56;5026019;28;20520;-73
2022/01/26 05:47:19;;;;;;;74.85;21.90;;;;;;;1.07;56.27;102868.28;5009327;28;20037;-73
2022/01/26 05:49:45;;;;;;;72.28;20.80;;;;;;;0.53;58.02;102869.13;4996893;28;20573;-73
2022/01/26 05:52:11;;;;;;;71.20;20.25;;;;;;;1.10;56.56;102870.94;5009530;28;20076;-73
2022/01/26 05:54:37;;;;;;;65.68;19.23;;;;;;;0.82;57.42;102871.78;5009257;28;20287;-73
2022/01/26 05:57:03;;;;;;;67.65;21.15;;;;;;;0.42;58.32;102860.16;5006182;28;20038;-74
2022/01/26 05:59:28;;;;;;;56.75;19.48;;;;;;;0.07;59.11;102864.94;5009592;28;20026;-72
2022/01/26 06:01:54;;;;;;;72.78;21.00;;;;;;;0.75;57.53;102864.66;5008392;28;20496;-69
2022/01/26 06:04:19;;;;;;;73.45;19.92;;;;;;;1.29;56.06;102864.69;5008516;28;20029;-69
2022/01/26 06:06:45;;;;;;;53.55;17.05;;;;;;;0.76;57.46;102869.88;5008126;28;20059;-71
2022/01/26 06:09:10;;;;;;;80.43;21.55;;;;;;;1.08;56.32;102860.63;5007091;28;20030;-70
2022/01/26 06:11:36;;;;;;;75.95;20.92;;;;;;;0.90;56.97;102860.03;4999017;28;20029;-72
2022/01/26 06:14:02;;;;;;;70.45;19.90;;;;;;;0.87;56.91;102850.50;5009950;28;20092;-73
2022/01/26 06:16:27;;;;;;;72.75;19.65;;;;;;;0.67;57.35;102851.56;5012891;28;20045;-72
2022/01/26 06:18:53;;;;;;;66.70;17.77;;;;;;;1.15;56.26;102861.69;5012253;28;20651;-72
2022/01/26 06:21:18;;;;;;;60.78;16.88;;;;;;;0.99;56.14;102857.75;5008658;28;20041;-72
2022/01/26 06:23:44;;;;;;;55.00;18.88;;;;;;;1.25;55.70;102858.56;5007637;28;20507;-69
2022/01/26 06:26:10;;;;;;;72.90;18.17;;;;;;;1.24;55.36;102859.41;5008088;28;20395;-71
2022/01/26 06:28:35;;;;;;;73.03;20.30;;;;;;;0.92;56.22;102863.53;5006445;28;20221;-69
2022/01/26 06:31:08;;;;;;;64.95;16.55;;;;;;;0.83;56.36;102866.66;5016278;28;20025;-71
2022/01/26 06:33:35;;;;;;;68.63;19.83;;;;;;;1.19;55.49;102860.06;5023550;28;20073;-70
2022/01/26 06:36:01;;;;;;;67.07;19.60;;;;;;;1.02;55.81;102865.56;5009227;28;20033;-71
2022/01/26 06:38:28;;;;;;;54.97;17.02;;;;;;;0.71;56.07;102873.13;5013393;28;20510;-72
2022/01/26 06:40:55;;;;;;;65.45;20.27;;;;;;;0.02;58.22;102869.06;5022383;28;20045;-72
2022/01/26 06:43:23;;;;;;;66.13;17.77;;;;;;;0.96;56.47;102870.53;5008812;28;20041;-70
2022/01/26 06:45:58;;;;;;;63.50;17.30;;;;;;;0.46;57.82;102869.75;5006279;28;20113;-70
2022/01/26 06:51:07;;;;;;;57.97;18.23;;;;;;;1.24;54.96;102866.25;5025457;28;20030;-70
2022/01/26 06:53:33;;;;;;;55.85;16.30;;;;;;;1.21;54.95;102871.28;5014838;28;20042;-71
2022/01/26 06:55:58;;;;;;;64.93;20.10;;;;;;;0.60;56.51;102873.63;5009698;28;20128;-72
2022/01/26 06:58:24;;;;;;;61.40;17.73;;;;;;;0.73;56.30;102869.78;5006639;28;20499;-72
2022/01/26 07:00:49;;;;;;;63.67;18.83;;;;;;;1.29;54.90;102869.84;5008105;28;20056;-72
2022/01/26 07:03:16;;;;;;;53.25;17.75;;;;;;;1.03;55.63;102874.16;5006571;28;20088;-71
2022/01/26 07:05:42;;;;;;;67.85;19.92;;;;;;;0.55;56.95;102877.78;5007929;28;20032;-72
2022/01/26 07:08:08;;;;;;;63.22;18.35;;;;;;;1.06;55.89;102877.72;5006056;28;20491;-72
2022/01/26 07:10:33;;;;;;;59.80;17.55;;;;;;;0.77;56.37;102891.34;5010183;28;20044;-73
2022/01/26 07:13:01;;;;;;;62.95;20.67;;;;;;;0.72;56.25;102890.31;5007290;28;20137;-73
2022/01/26 07:23:22;;;;;;;61.20;18.13;;;;;;;0.81;55.65;102877.75;5020368;28;20548;-72
2022/01/26 07:25:48;;;;;;;53.33;16.92;;;;;;;1.27;54.28;102881.78;5008296;28;20172;-73
2022/01/26 07:28:14;;;;;;;68.30;19.60;;;;;;;1.25;54.47;102880.88;5005559;28;20046;-73
2022/01/26 07:30:39;;;;;;;56.72;16.75;;;;;;;0.53;55.83;102879.41;5009557;28;20045;-74
2022/01/26 07:33:06;;;;;;;64.07;17.83;;;;;;;0.53;56.29;102873.41;5010503;28;20048;-72
2022/01/26 07:35:32;;;;;;;53.78;15.93;;;;;;;0.66;55.66;102871.28;5006127;28;20030;-74
2022/01/26 07:38:00;;;;;;;63.42;18.77;;;;;;;0.66;56.04;102876.44;4981557;28;20049;-73
2022/01/26 07:40:26;;;;;;;55.67;18.02;;;;;;;0.65;55.97;102877.22;5015994;28;20789;-73
2022/01/26 07:42:53;;;;;;;60.70;19.33;;;;;;;0.26;57.09;102884.47;5006016;28;20037;-72
2022/01/26 07:45:19;;;;;;;59.85;17.65;;;;;;;0.95;55.06;102894.53;5023761;28;20343;-72
2022/01/26 07:47:45;;;;;;;62.20;16.88;;;;;;;0.37;56.92;102892.59;5004783;28;20129;-72
2022/01/26 07:50:13;;;;;;;60.08;18.35;;;;;;;0.83;55.53;102883.81;5015644;28;20335;-73
2022/01/26 07:52:42;;;;;;;61.05;18.67;;;;;;;0.46;56.29;102883.47;4995610;28;20042;-70
2022/01/26 07:55:13;;;;;;;62.90;18.67;;;;;;;0.74;55.40;102886.09;5006368;28;20038;-73
2022/01/26 07:57:38;;;;;;;57.63;19.00;;;;;;;0.94;55.55;102879.91;5007663;28;20499;-74
2022/01/26 08:00:06;;;;;;;76.15;19.10;;;;;;;0.96;55.21;102887.69;5008740;28;20087;-74
2022/01/26 08:02:39;;;;;;;59.63;16.17;;;;;;;0.77;55.61;102899.06;5019147;28;20077;-74
2022/01/26 08:05:05;;;;;;;61.55;18.40;;;;;;;0.68;56.08;102890.22;5008984;28;20033;-73
2022/01/26 08:07:31;;;;;;;63.88;18.48;;;;;;;0.73;55.41;102892.09;5006020;28;20473;-72
2022/01/26 08:09:56;;;;;;;57.83;18.95;;;;;;;0.59;55.79;102887.34;5008739;28;20042;-72
2022/01/26 08:12:22;;;;;;;55.78;18.88;;;;;;;0.62;56.11;102892.59;5007060;28;20038;-73
2022/01/26 08:14:47;;;;;;;63.25;21.08;;;;;;;0.10;57.48;102883.06;5005573;28;20100;-72
2022/01/26 08:17:16;;;;;;;67.28;19.38;;;;;;;0.06;57.42;102883.78;5008704;28;20072;-71
2022/01/26 08:19:42;;;;;;;68.75;18.88;;;;;;;0.57;56.77;102883.84;5020033;28;20052;-70
2022/01/26 08:22:08;;;;;;;65.00;20.45;;;;;;;0.38;56.97;102878.88;5005652;28;20470;-70
2022/01/26 08:24:34;;;;;;;65.05;20.05;;;;;;;0.80;55.85;102891.47;5004512;28;20033;-69
2022/01/26 08:27:08;;;;;;;63.35;19.40;;;;;;;0.62;56.55;102887.44;5003968;28;20038;-72
2022/01/26 08:29:49;;;;;;;68.93;18.58;;;;;;;0.85;55.70;102887.31;5005028;28;20217;-72
2022/01/26 08:32:14;;;;;;;61.03;18.02;;;;;;;0.60;56.43;102894.22;5004876;28;20120;-73
2022/01/26 08:34:40;;;;;;;86.63;20.48;;;;;;;0.74;56.41;102894.69;5006210;28;20022;-70
2022/01/26 08:37:06;;;;;;;74.05;19.48;;;;;;;0.72;56.40;102890.31;5006548;28;20128;-70
2022/01/26 08:39:35;;;;;;;73.63;21.27;;;;;;;0.68;56.44;102897.94;5005123;28;20029;-70
2022/01/26 08:42:01;;;;;;;68.93;19.38;;;;;;;0.71;56.76;102898.88;5022763;28;20112;-72
2022/01/26 08:44:27;;;;;;;69.68;18.45;;;;;;;1.29;55.08;102904.19;5006538;28;20136;-71
2022/01/26 08:46:52;;;;;;;62.75;20.30;;;;;;;1.05;55.54;102896.56;5008260;28;20451;-70
2022/01/26 08:49:18;;;;;;;74.78;21.88;;;;;;;0.84;56.13;102893.31;5009301;28;20474;-71
2022/01/26 08:51:43;;;;;;;63.40;21.48;;;;;;;0.34;57.40;102902.75;5023748;28;20040;-73
2022/01/26 08:54:10;;;;;;;63.05;20.00;;;;;;;0.40;57.05;102897.81;5010369;28;20509;-70
2022/01/26 08:56:37;;;;;;;67.97;20.48;;;;;;;0.69;56.57;102891.97;5012324;28;20136;-72
2022/01/26 08:59:03;;;;;;;75.93;19.10;;;;;;;0.71;56.66;102897.16;5009187;28;20080;-72
2022/01/26 09:01:29;;;;;;;64.82;19.80;;;;;;;0.58;56.93;102893.31;5007555;28;20692;-71
2022/01/26 09:03:55;;;;;;;63.45;21.42;;;;;;;0.10;57.74;102888.22;5007823;28;20117;-71
2022/01/26 09:06:21;;;;;;;69.88;20.92;;;;;;;0.93;56.16;102895.31;5011619;28;20033;-72
2022/01/26 09:08:52;;;;;;;64.10;20.27;;;;;;;0.76;56.01;102892.19;5007589;28;20048;-70
2022/01/26 09:11:22;;;;;;;62.63;20.75;;;;;;;1.01;55.39;102879.25;5007324;28;20034;-71
2022/01/26 09:13:55;;;;;;;63.42;20.13;;;;;;;0.60;56.43;102891.66;5008443;28;20041;-72
2022/01/26 09:16:23;;;;;;;68.80;19.50;;;;;;;0.64;56.53;102898.66;5009207;28;20322;-71
2022/01/26 09:18:56;;;;;;;53.42;18.30;;;;;;;1.42;54.31;102902.91;5008846;28;20176;-71
2022/01/26 09:21:24;;;;;;;56.90;19.00;;;;;;;1.54;53.86;102897.25;5006782;28;20030;-72
2022/01/26 09:23:50;;;;;;;60.47;19.25;;;;;;;0.79;56.03;102889.69;5013680;28;20104;-71
2022/01/26 09:26:16;;;;;;;62.85;19.65;;;;;;;0.81;56.42;102890.63;5008909;28;20483;-72
2022/01/26 09:28:41;;;;;;;68.15;22.17;;;;;;;1.14;55.05;102874.50;5006824;28;20079;-71
2022/01/26 09:31:07;;;;;;;62.10;17.63;;;;;;;1.23;54.67;102883.38;5007777;28;20097;-71
2022/01/26 09:33:33;;;;;;;80.22;22.05;;;;;;;0.22;57.56;102869.75;5009964;28;20033;-71
2022/01/26 09:35:58;;;;;;;69.13;19.17;;;;;;;0.84;56.45;102880.44;5009077;28;20037;-73
2022/01/26 09:38:24;;;;;;;59.05;18.88;;;;;;;1.07;55.52;102874.31;5021657;28;20038;-70
2022/01/26 09:40:50;;;;;;;71.18;19.08;;;;;;;1.28;54.69;102868.97;5001967;28;20044;-70
2022/01/26 09:43:17;;;;;;;55.30;19.73;;;;;;;1.07;55.57;102869.16;5001770;28;20031;-70
2022/01/26 09:45:44;;;;;;;69.57;18.27;;;;;;;1.35;54.58;102871.72;5005062;28;20044;-71
2022/01/26 09:48:12;;;;;;;62.50;18.88;;;;;;;1.00;55.60;102879.22;5003750;28;20046;-71
2022/01/26 09:50:37;;;;;;;62.00;19.77;;;;;;;0.70;55.95;102877.38;5007099;28;20124;-71
2022/01/26 09:53:03;;;;;;;77.38;19.88;;;;;;;0.94;55.70;102877.31;5005029;28;20046;-70
2022/01/26 09:55:29;;;;;;;72.43;20.02;;;;;;;0.82;56.42;102866.66;5007010;28;20038;-71
2022/01/26 09:57:57;;;;;;;66.90;17.88;;;;;;;1.30;55.14;102871.56;5019933;28;20033;-70
2022/01/26 10:00:27;;;;;;;67.95;19.98;;;;;;;0.77;56.64;102873.31;4994288;28;20037;-71
2022/01/26 10:02:58;;;;;;;69.40;18.95;;;;;;;0.89;56.07;102879.75;5007107;28;20064;-70
2022/01/26 10:05:24;;;;;;;66.90;19.25;;;;;;;0.90;56.32;102878.03;5022107;28;20080;-70
2022/01/26 10:08:12;;;;;;;66.78;18.45;;;;;;;1.67;54.39;102877.88;5005546;28;20041;-71
2022/01/26 10:18:38;;;;;;;58.70;18.08;;;;;;;1.35;55.20;102889.75;5021217;28;20091;-71
2022/01/26 10:21:09;;;;;;;59.92;19.85;;;;;;;1.00;55.93;102895.56;5006618;28;20192;-70
2022/01/26 10:23:38;;;;;;;48.65;15.10;;;;;;;1.10;55.90;102905.34;5003593;28;20126;-71
2022/01/26 10:26:03;;;;;;;69.18;20.58;;;;;;;1.15;55.65;102895.19;5007303;28;20067;-70
2022/01/26 10:28:59;;;;;;;70.35;20.05;;;;;;;1.24;55.32;102897.16;5006143;28;20450;-71
2022/01/26 10:31:39;;;;;;;63.35;19.38;;;;;;;1.06;55.61;102895.75;5005227;28;20522;-71
2022/01/26 10:34:15;;;;;;;63.42;19.92;;;;;;;1.01;55.98;102888.69;5005827;28;20506;-72
2022/01/26 10:36:45;;;;;;;62.83;20.42;;;;;;;1.09;56.29;102893.25;5006573;28;20740;-71
2022/01/26 10:39:22;;;;;;;70.82;21.05;;;;;;;1.47;55.13;102895.31;5005945;28;20081;-74
2022/01/26 10:41:50;;;;;;;68.25;20.15;;;;;;;1.69;54.09;102883.97;5006258;28;20072;-71
2022/01/26 10:44:17;;;;;;;62.05;19.52;;;;;;;1.54;54.87;102892.09;5006370;28;20517;-71
2022/01/26 10:46:44;;;;;;;63.10;19.02;;;;;;;1.57;55.03;102881.88;5009823;28;20551;-72
2022/01/26 10:51:54;;;;;;;60.72;20.50;;;;;;;1.29;55.31;102880.16;5006376;28;20099;-71
2022/01/26 10:54:27;;;;;;;67.35;21.85;;;;;;;1.66;54.55;102870.97;5006583;28;20096;-70
2022/01/26 10:56:53;;;;;;;66.85;21.58;;;;;;;1.16;55.81;102870.28;5007308;28;20156;-71
2022/01/26 10:59:19;;;;;;;62.88;20.33;;;;;;;0.81;56.94;102867.44;5019754;28;20037;-72
2022/01/26 11:01:45;;;;;;;69.53;19.77;;;;;;;1.23;56.02;102864.50;5002938;28;20022;-70
2022/01/26 11:04:10;;;;;;;84.80;24.15;;;;;;;1.39;55.68;102861.53;5004728;28;20040;-72
2022/01/26 11:06:40;;;;;;;78.90;21.60;;;;;;;1.70;55.11;102855.63;5008078;28;20038;-73
2022/01/26 11:09:11;;;;;;;56.08;18.13;;;;;;;1.21;56.11;102850.69;5021834;28;20038;-71
2022/01/26 11:11:40;;;;;;;71.45;21.67;;;;;;;1.17;56.47;102842.00;5009773;28;20390;-71
2022/01/26 11:14:22;;;;;;;73.13;22.13;;;;;;;0.80;57.37;102832.25;5019970;28;20038;-71
2022/01/26 11:17:09;;;;;;;55.75;18.35;;;;;;;1.57;55.73;102829.44;5005500;28;20030;-71
2022/01/26 11:19:44;;;;;;;72.30;22.20;;;;;;;1.35;56.50;102826.22;5007834;28;20026;-71
2022/01/26 11:22:11;;;;;;;71.50;21.42;;;;;;;1.45;56.42;102820.53;5021769;28;20041;-71
2022/01/26 11:24:48;;;;;;;83.85;22.58;;;;;;;0.98;56.97;102819.94;5007237;28;20051;-72
2022/01/26 11:27:16;;;;;;;69.70;21.67;;;;;;;1.19;57.19;102806.84;5005413;28;20315;-71
2022/01/26 11:29:46;;;;;;;79.25;23.02;;;;;;;0.95;58.24;102807.00;5008037;28;20060;-71
2022/01/26 11:32:24;;;;;;;73.20;23.58;;;;;;;1.39;57.11;102814.28;5007815;28;20045;-70
2022/01/26 11:34:53;;;;;;;72.25;22.23;;;;;;;1.27;57.86;102820.84;5010086;28;20060;-71
2022/01/26 11:37:26;;;;;;;83.03;24.15;;;;;;;1.51;57.37;102815.56;5008464;28;20051;-71
2022/01/26 11:45:22;;;;;;;71.78;22.80;;;;;;;1.29;57.87;102813.16;5006311;28;20502;-71
2022/01/26 11:47:58;;;;;;;81.65;23.23;;;;;;;1.68;57.45;102807.44;5023321;28;20049;-71
2022/01/26 11:50:25;;;;;;;82.57;23.83;;;;;;;1.62;57.61;102822.75;5010515;28;20557;-71
2022/01/26 11:53:04;;;;;;;71.13;23.15;;;;;;;1.89;57.52;102805.47;5004002;28;20422;-71
2022/01/26 11:55:38;;;;;;;86.38;24.75;;;;;;;1.61;57.37;102800.38;5017860;28;20064;-71
2022/01/26 11:58:08;;;;;;;73.68;21.05;;;;;;;1.72;57.00;102799.81;5000794;28;20587;-72
2022/01/26 12:01:29;;;;;;;73.63;22.50;;;;;;;1.77;57.15;102797.38;5003671;28;20141;-72
2022/01/26 12:03:32;;;;;;;69.90;22.27;;;;;;;2.14;56.36;102790.63;5004249;28;20587;-71
2022/01/26 12:05:59;;;;;;;78.45;22.67;;;;;;;1.38;58.19;102786.78;5005017;28;20033;-71
2022/01/26 12:08:29;;;;;;;78.57;24.48;;;;;;;2.13;56.45;102775.97;5004837;28;20084;-72
2022/01/26 12:10:55;;;;;;;63.20;20.98;;;;;;;2.01;56.38;102775.66;5004304;28;20039;-72
2022/01/26 12:13:25;;;;;;;77.65;22.33;;;;;;;1.30;58.55;102783.97;5018413;28;20136;-72
2022/01/26 12:15:55;;;;;;;72.60;22.77;;;;;;;1.28;58.82;102781.38;5005187;28;21547;-72
2022/01/26 12:36:14;;;;;;;55.80;17.25;;;;;;;1.93;57.35;102778.94;4980272;28;20049;-72
2022/01/26 12:43:52;;;;;;;58.95;19.40;;;;;;;2.61;55.59;102798.69;5005962;28;20384;-72
2022/01/26 12:46:20;;;;;;;64.75;20.20;;;;;;;2.17;56.99;102793.28;5023987;28;20043;-71
2022/01/26 12:48:55;;;;;;;65.90;21.17;;;;;;;1.76;57.61;102779.31;5008881;28;20042;-70
2022/01/26 12:51:22;;;;;;;64.18;20.75;;;;;;;2.12;57.41;102785.41;5010664;28;20042;-71
2022/01/26 12:54:02;;;;;;;56.35;19.33;;;;;;;1.93;57.43;102762.59;5021433;28;20049;-71
2022/01/26 12:56:30;;;;;;;60.47;18.35;;;;;;;2.19;57.53;102767.53;5008976;28;20033;-71
2022/01/26 12:59:16;;;;;;;55.85;19.80;;;;;;;2.43;56.28;102754.38;5004717;28;20029;-72
2022/01/26 13:01:44;;;;;;;72.47;21.27;;;;;;;2.14;57.52;102751.94;5005474;28;20342;-71
2022/01/26 13:04:12;;;;;;;65.68;20.25;;;;;;;2.53;56.46;102758.91;5008838;28;20407;-71
2022/01/26 13:06:47;;;;;;;65.25;20.50;;;;;;;2.64;56.18;102757.44;5008963;28;20033;-71
2022/01/26 13:09:19;;;;;;;53.33;16.38;;;;;;;2.49;56.64;102754.53;5024693;28;20120;-72
2022/01/26 13:11:47;;;;;;;63.75;20.23;;;;;;;2.39;57.38;102755.13;5007345;28;20040;-71
2022/01/26 13:14:27;;;;;;;56.28;18.17;;;;;;;2.17;57.67;102752.00;5024424;28;20034;-71
2022/01/26 13:17:14;;;;;;;63.40;19.17;;;;;;;2.01;58.75;102739.56;5007617;28;20034;-72
2022/01/26 13:25:31;;;;;;;51.75;15.80;;;;;;;1.56;60.32;102742.66;4989021;28;20034;-71
2022/01/26 13:30:52;;;;;;;;;;;;;;;1.79;59.06;102727.81;4987397;28;20038;-72
2022/01/26 13:36:10;;;;;;;51.08;15.85;;;;;;;2.27;57.97;102712.69;5003185;28;20448;-71
2022/01/26 13:51:19;;;;;;;39.50;14.38;;;;;;;2.00;59.21;102712.91;4987912;28;20517;-71
2022/01/26 13:56:20;;;;;;;50.30;16.30;;;;;;;1.95;59.48;102709.31;4987163;28;20041;-71
2022/01/26 13:58:56;;;;;;;43.20;16.10;;;;;;;1.75;60.10;102706.22;4985151;28;20650;-71
2022/01/26 14:01:22;;;;;;;47.30;14.07;;;;;;;1.93;59.49;102722.19;4990631;28;20554;-71
2022/01/26 14:03:52;;;;;;;41.25;13.88;;;;;;;2.38;58.53;102720.72;5002651;28;20297;-71
2022/01/26 14:06:18;;;;;;;36.33;13.18;;;;;;;2.26;58.44;102720.41;4997616;28;20125;-72